createdAt,value
2019-04-07T00:01:04.638Z,40.30
2019-04-07T00:03:33.339Z,40.29
2019-04-07T00:06:01.756Z,40.17
2019-04-07T00:08:31.195Z,40.33
2019-04-07T00:11:00.214Z,40.25
2019-04-07T00:13:29.389Z,40.35
2019-04-07T00:15:57.955Z,40.39
2019-04-07T00:18:27.115Z,40.39
2019-04-07T00:20:55.583Z,40.37
2019-04-07T00:23:24.055Z,40.39
2019-04-07T00:25:52.507Z,40.35
2019-04-07T00:28:21.191Z,40.37
2019-04-07T00:30:50.019Z,40.12
2019-04-07T00:33:18.435Z,40.35
2019-04-07T00:35:46.903Z,40.34
2019-04-07T00:38:15.347Z,40.23
2019-04-07T00:40:43.813Z,40.36
2019-04-07T00:43:12.249Z,40.27
2019-04-07T00:45:40.658Z,40.20
2019-04-07T00:48:09.136Z,40.23
2019-04-07T00:50:37.508Z,40.37
2019-04-07T00:53:06.533Z,40.21
2019-04-07T00:55:35.016Z,40.19
2019-04-07T00:58:03.662Z,40.40
2019-04-07T01:00:33.761Z,40.32
2019-04-07T01:03:02.184Z,40.23
2019-04-07T01:05:36.737Z,40.36
2019-04-07T01:08:00.970Z,40.30
2019-04-07T01:10:30.469Z,40.27
2019-04-07T01:12:59.030Z,40.24
2019-04-07T01:15:27.894Z,40.11
2019-04-07T01:17:56.361Z,40.30
2019-04-07T01:20:24.773Z,40.28
2019-04-07T01:22:53.188Z,40.35
2019-04-07T01:25:21.582Z,40.42
2019-04-07T01:27:51.198Z,40.58
2019-04-07T01:30:19.942Z,40.39
2019-04-07T01:32:48.452Z,40.28
2019-04-07T01:35:16.894Z,40.27
2019-04-07T01:37:45.863Z,40.39
2019-04-07T01:40:14.539Z,40.33
2019-04-07T01:42:44.597Z,40.37
2019-04-07T01:45:23.807Z,40.44
2019-04-07T01:48:06.133Z,40.32
2019-04-07T01:50:39.275Z,40.39
2019-04-07T01:53:25.978Z,40.38
2019-04-07T01:56:12.025Z,40.61
2019-04-07T01:58:58.355Z,40.51
2019-04-07T02:01:45.068Z,40.57
2019-04-07T02:04:24.546Z,40.40
2019-04-07T02:07:00.811Z,40.54
2019-04-07T02:09:47.897Z,40.43
2019-04-07T02:12:26.867Z,40.59
2019-04-07T02:15:12.973Z,40.79
2019-04-07T02:17:45.720Z,40.44
2019-04-07T02:20:38.780Z,40.56
2019-04-07T02:23:09.555Z,40.54
2019-04-07T02:25:52.745Z,40.65
2019-04-07T02:28:23.041Z,40.60
2019-04-07T02:30:59.027Z,40.58
2019-04-07T02:33:31.519Z,40.74
2019-04-07T02:36:15.687Z,40.54
2019-04-07T02:38:39.041Z,40.66
2019-04-07T02:41:20.708Z,40.61
2019-04-07T02:43:50.747Z,40.70
2019-04-07T02:46:21.182Z,40.65
2019-04-07T02:48:57.746Z,40.59
2019-04-07T02:51:28.036Z,40.46
2019-04-07T02:54:16.262Z,40.72
2019-04-07T02:56:46.317Z,40.60
2019-04-07T02:59:35.323Z,40.64
2019-04-07T03:02:11.000Z,40.78
2019-04-07T03:04:41.601Z,40.74
2019-04-07T03:07:17.785Z,40.69
2019-04-07T03:09:47.863Z,40.83
2019-04-07T03:12:21.198Z,40.54
2019-04-07T03:15:03.850Z,40.86
2019-04-07T03:17:39.721Z,40.89
2019-04-07T03:20:16.747Z,40.65
2019-04-07T03:22:47.162Z,40.72
2019-04-07T03:25:17.351Z,40.59
2019-04-07T03:27:57.118Z,40.75
2019-04-07T03:30:40.960Z,40.83
2019-04-07T03:33:22.650Z,40.82
2019-04-07T03:35:55.356Z,40.53
2019-04-07T03:38:27.408Z,40.73
2019-04-07T03:40:57.545Z,40.70
2019-04-07T03:43:30.607Z,40.78
2019-04-07T03:46:03.687Z,40.73
2019-04-07T03:48:33.846Z,40.75
2019-04-07T03:51:09.590Z,40.68
2019-04-07T03:53:52.153Z,40.64
2019-04-07T03:56:25.398Z,40.65
2019-04-07T03:59:01.228Z,40.65
2019-04-07T04:01:35.248Z,40.45
2019-04-07T04:04:22.412Z,40.47
2019-04-07T04:06:55.413Z,40.69
2019-04-07T04:09:37.094Z,40.56
2019-04-07T04:12:21.321Z,40.58
2019-04-07T04:15:07.011Z,40.68
2019-04-07T04:17:35.430Z,40.59
2019-04-07T04:20:08.384Z,40.57
2019-04-07T04:22:37.735Z,40.53
2019-04-07T04:25:06.792Z,40.52
2019-04-07T04:27:35.469Z,40.59
2019-04-07T04:30:10.238Z,40.58
2019-04-07T04:32:39.535Z,40.64
2019-04-07T04:35:08.516Z,40.49
2019-04-07T04:37:44.200Z,40.75
2019-04-07T04:40:07.559Z,40.54
2019-04-07T04:42:36.004Z,40.22
2019-04-07T04:45:06.346Z,40.41
2019-04-07T04:47:34.794Z,40.51
2019-04-07T04:50:04.820Z,40.50
2019-04-07T04:52:34.052Z,40.33
2019-04-07T04:55:02.425Z,40.45
2019-04-07T04:57:31.889Z,40.38
2019-04-07T05:00:00.567Z,40.23
2019-04-07T05:02:29.914Z,40.37
2019-04-07T05:04:58.426Z,40.39
2019-04-07T05:07:27.078Z,40.48
2019-04-07T05:09:56.681Z,40.42
2019-04-07T05:12:25.880Z,40.39
2019-04-07T05:14:54.794Z,40.21
2019-04-07T05:17:23.404Z,40.23
2019-04-07T05:19:52.185Z,40.13
2019-04-07T05:22:21.194Z,40.17
2019-04-07T05:24:50.467Z,39.96
2019-04-07T05:27:19.002Z,40.06
2019-04-07T05:29:47.851Z,39.92
2019-04-07T05:32:16.869Z,40.08
2019-04-07T05:34:45.598Z,40.20
2019-04-07T05:37:14.132Z,40.06
2019-04-07T05:39:42.618Z,40.11
2019-04-07T05:42:11.034Z,40.08
2019-04-07T05:44:39.796Z,40.04
2019-04-07T05:47:10.904Z,40.03
2019-04-07T05:49:38.917Z,40.02
2019-04-07T05:52:07.578Z,40.13
2019-04-07T05:54:36.193Z,39.90
2019-04-07T05:57:05.362Z,40.06
2019-04-07T05:59:34.023Z,40.01
2019-04-07T06:02:03.069Z,40.09
2019-04-07T06:04:32.202Z,40.12
2019-04-07T06:07:00.724Z,40.09
2019-04-07T06:09:29.627Z,40.21
2019-04-07T06:11:58.712Z,40.21
2019-04-07T06:14:27.350Z,39.83
2019-04-07T06:16:55.995Z,39.81
2019-04-07T06:19:24.985Z,39.78
2019-04-07T06:21:53.462Z,39.69
2019-04-07T06:24:22.505Z,39.74
2019-04-07T06:26:51.063Z,39.55
2019-04-07T06:29:20.035Z,39.57
2019-04-07T06:31:48.536Z,39.56
2019-04-07T06:34:18.777Z,39.50
2019-04-07T06:36:51.517Z,39.40
2019-04-07T06:39:19.260Z,39.38
2019-04-07T06:41:47.662Z,39.32
2019-04-07T06:44:19.901Z,39.38
2019-04-07T06:46:50.954Z,39.33
2019-04-07T06:49:27.493Z,39.47
2019-04-07T06:52:00.654Z,39.27
2019-04-07T06:54:35.359Z,39.37
2019-04-07T06:57:14.838Z,39.34
2019-04-07T06:59:51.346Z,39.46
2019-04-07T07:02:38.001Z,39.42
2019-04-07T07:05:24.152Z,39.48
2019-04-07T07:08:10.010Z,39.53
2019-04-07T07:10:56.425Z,39.50
2019-04-07T07:13:33.473Z,39.49
2019-04-07T07:16:01.576Z,39.37
2019-04-07T07:18:43.882Z,39.56
2019-04-07T07:21:16.694Z,39.41
2019-04-07T07:23:48.931Z,39.64
2019-04-07T07:26:16.062Z,39.75
2019-04-07T07:28:45.642Z,39.70
2019-04-07T07:31:14.418Z,39.73
2019-04-07T07:33:43.910Z,39.76
2019-04-07T07:36:13.385Z,39.90
2019-04-07T07:38:54.516Z,39.98
2019-04-07T07:41:12.118Z,39.94
2019-04-07T07:43:41.466Z,40.06
2019-04-07T07:46:10.135Z,40.06
2019-04-07T07:48:38.930Z,40.06
2019-04-07T07:51:10.928Z,40.03
2019-04-07T07:53:38.320Z,40.03
2019-04-07T07:56:11.329Z,40.01
2019-04-07T07:58:36.985Z,39.96
2019-04-07T08:01:05.545Z,40.00
2019-04-07T08:03:33.957Z,39.99
2019-04-07T08:06:06.937Z,40.00
2019-04-07T08:08:33.128Z,39.92
2019-04-07T08:11:02.715Z,39.95
2019-04-07T08:13:31.363Z,40.00
2019-04-07T08:16:00.492Z,39.98
2019-04-07T08:18:29.616Z,39.93
2019-04-07T08:20:58.902Z,39.91
2019-04-07T08:23:29.750Z,39.94
2019-04-07T08:25:59.115Z,40.12
2019-04-07T08:28:27.592Z,40.02
2019-04-07T08:30:56.112Z,39.97
2019-04-07T08:33:24.831Z,39.98
2019-04-07T08:35:55.264Z,40.05
2019-04-07T08:38:26.728Z,40.00
2019-04-07T08:40:55.115Z,40.03
2019-04-07T08:43:24.679Z,40.00
2019-04-07T08:45:53.665Z,40.01
2019-04-07T08:48:22.191Z,39.96
2019-04-07T08:50:50.614Z,39.88
2019-04-07T08:53:19.208Z,39.80
2019-04-07T08:55:49.879Z,39.70
2019-04-07T08:58:24.939Z,39.60
2019-04-07T09:00:52.626Z,39.46
2019-04-07T09:03:19.906Z,39.13
2019-04-07T09:05:48.419Z,38.96
2019-04-07T09:08:17.808Z,38.96
2019-04-07T09:10:49.523Z,38.66
2019-04-07T09:13:18.590Z,38.40
2019-04-07T09:15:49.690Z,38.03
2019-04-07T09:18:23.296Z,37.92
2019-04-07T09:20:53.411Z,37.72
2019-04-07T09:23:40.472Z,37.73
2019-04-07T09:26:13.089Z,37.71
2019-04-07T09:28:43.332Z,37.61
2019-04-07T09:31:20.432Z,37.56
2019-04-07T09:33:53.986Z,37.50
2019-04-07T09:36:32.348Z,37.43
2019-04-07T09:39:07.862Z,37.38
2019-04-07T09:41:55.144Z,37.25
2019-04-07T09:44:28.963Z,37.18
2019-04-07T09:47:17.255Z,37.10
2019-04-07T09:50:00.507Z,37.02
2019-04-07T09:52:49.035Z,36.99
2019-04-07T09:55:27.899Z,36.91
2019-04-07T09:58:14.865Z,36.88
2019-04-07T10:00:57.712Z,36.85
2019-04-07T10:03:38.169Z,36.80
2019-04-07T10:06:10.620Z,36.74
2019-04-07T10:08:56.467Z,36.74
2019-04-07T10:11:43.927Z,36.70
2019-04-07T10:14:16.819Z,36.63
2019-04-07T10:16:56.333Z,36.56
2019-04-07T10:19:26.937Z,36.46
2019-04-07T10:21:57.063Z,36.32
2019-04-07T10:24:43.049Z,36.16
2019-04-07T10:27:17.627Z,36.01
2019-04-07T10:30:03.545Z,35.75
2019-04-07T10:32:34.009Z,35.63
2019-04-07T10:35:13.636Z,35.55
2019-04-07T10:37:47.449Z,35.39
2019-04-07T10:40:33.475Z,35.17
2019-04-07T10:43:21.744Z,35.04
2019-04-07T10:45:51.960Z,34.95
2019-04-07T10:48:28.653Z,34.88
2019-04-07T10:51:14.879Z,34.68
2019-04-07T10:53:45.168Z,34.46
2019-04-07T10:56:17.741Z,34.03
2019-04-07T10:59:04.755Z,33.55
2019-04-07T11:01:36.221Z,33.14
2019-04-07T11:04:12.691Z,32.35
2019-04-07T11:06:43.863Z,31.23
2019-04-07T11:09:30.507Z,30.08
2019-04-07T11:12:09.833Z,29.00
2019-04-07T11:14:43.062Z,27.92
2019-04-07T11:17:13.926Z,26.95
2019-04-07T11:19:46.825Z,26.21
2019-04-07T11:22:36.101Z,25.53
2019-04-07T11:25:06.420Z,24.91
2019-04-07T11:27:39.865Z,24.44
2019-04-07T11:30:10.029Z,24.07
2019-04-07T11:32:40.300Z,23.77
2019-04-07T11:35:13.722Z,23.55
2019-04-07T11:37:49.605Z,23.46
2019-04-07T11:40:29.276Z,23.33
2019-04-07T11:43:07.064Z,23.66
2019-04-07T11:45:56.126Z,24.28
2019-04-07T11:48:27.510Z,24.52
2019-04-07T11:50:57.688Z,24.55
2019-04-07T11:53:30.491Z,24.23
2019-04-07T11:56:01.467Z,23.68
2019-04-07T11:58:38.662Z,23.45
2019-04-07T12:01:15.695Z,23.78
2019-04-07T12:04:02.724Z,23.88
2019-04-07T12:06:49.589Z,24.28
2019-04-07T12:09:19.640Z,24.63
2019-04-07T12:11:52.617Z,24.96
2019-04-07T12:14:25.643Z,25.30
2019-04-07T12:17:12.569Z,25.35
2019-04-07T12:19:59.194Z,24.87
2019-04-07T12:22:38.092Z,24.09
2019-04-07T12:25:25.800Z,23.72
2019-04-07T12:28:01.509Z,23.18
2019-04-07T12:30:37.988Z,22.41
2019-04-07T12:33:24.238Z,21.75
2019-04-07T12:35:55.770Z,21.46
2019-04-07T12:38:28.879Z,20.90
2019-04-07T12:41:12.313Z,20.42
2019-04-07T12:43:30.705Z,20.12
2019-04-07T12:46:01.260Z,19.75
2019-04-07T12:48:32.020Z,19.48
2019-04-07T12:51:08.437Z,19.16
2019-04-07T12:53:38.985Z,18.93
2019-04-07T12:56:32.345Z,18.71
2019-04-07T12:59:18.065Z,18.45
2019-04-07T13:02:07.859Z,18.26
2019-04-07T13:04:37.086Z,18.13
2019-04-07T13:07:25.296Z,17.90
2019-04-07T13:09:55.340Z,17.76
2019-04-07T13:12:31.168Z,17.70
2019-04-07T13:15:16.638Z,17.64
2019-04-07T13:17:56.303Z,17.84
2019-04-07T13:20:42.670Z,18.33
2019-04-07T13:23:13.626Z,18.75
2019-04-07T13:25:54.320Z,19.20
2019-04-07T13:28:40.160Z,18.99
2019-04-07T13:31:21.987Z,18.96
2019-04-07T13:34:02.767Z,18.59
2019-04-07T13:36:33.343Z,18.35
2019-04-07T13:39:09.928Z,18.18
2019-04-07T13:41:47.599Z,18.04
2019-04-07T13:44:29.510Z,17.77
2019-04-07T13:47:09.471Z,17.62
2019-04-07T13:49:58.986Z,17.45
2019-04-07T13:52:28.030Z,17.36
2019-04-07T13:55:04.637Z,17.41
2019-04-07T13:57:36.024Z,17.35
2019-04-07T14:00:15.027Z,17.34
2019-04-07T14:03:01.384Z,17.33
2019-04-07T14:05:32.100Z,17.71
2019-04-07T14:08:17.224Z,18.93
2019-04-07T14:10:50.415Z,19.74
2019-04-07T14:13:21.018Z,20.64
2019-04-07T14:15:52.001Z,21.35
2019-04-07T14:18:22.391Z,22.11
2019-04-07T14:21:09.422Z,22.78
2019-04-07T14:23:42.364Z,23.46
2019-04-07T14:26:15.740Z,24.09
2019-04-07T14:28:48.328Z,24.65
2019-04-07T14:31:18.373Z,25.07
2019-04-07T14:33:55.605Z,25.55
2019-04-07T14:36:38.166Z,25.95
2019-04-07T14:39:09.643Z,26.33
2019-04-07T14:41:43.214Z,26.71
2019-04-07T14:44:30.421Z,27.14
2019-04-07T14:47:09.678Z,27.31
2019-04-07T14:49:56.192Z,27.67
2019-04-07T14:52:42.655Z,27.94
2019-04-07T14:55:21.451Z,28.22
2019-04-07T14:58:13.080Z,28.47
2019-04-07T15:00:43.914Z,28.69
2019-04-07T15:03:12.449Z,28.97
2019-04-07T15:05:42.527Z,29.15
2019-04-07T15:08:12.571Z,29.30
2019-04-07T15:10:52.774Z,29.49
2019-04-07T15:13:25.799Z,29.68
2019-04-07T15:15:53.146Z,29.85
2019-04-07T15:18:21.641Z,30.02
2019-04-07T15:20:50.541Z,30.10
2019-04-07T15:23:19.843Z,30.30
2019-04-07T15:25:48.385Z,30.38
2019-04-07T15:28:17.487Z,30.55
2019-04-07T15:30:48.827Z,30.63
2019-04-07T15:33:16.283Z,30.75
2019-04-07T15:35:48.682Z,30.91
2019-04-07T15:38:15.403Z,30.98
2019-04-07T15:40:44.880Z,31.17
2019-04-07T15:43:13.370Z,31.26
2019-04-07T15:45:44.388Z,31.42
2019-04-07T15:48:12.491Z,31.48
2019-04-07T15:50:41.727Z,31.58
2019-04-07T15:53:13.452Z,31.74
2019-04-07T15:55:47.598Z,31.86
2019-04-07T15:58:10.792Z,31.89
2019-04-07T16:00:39.222Z,31.95
2019-04-07T16:03:08.571Z,32.05
2019-04-07T16:05:42.212Z,32.18
2019-04-07T16:08:07.181Z,32.22
2019-04-07T16:10:36.004Z,32.33
2019-04-07T16:13:04.764Z,32.41
2019-04-07T16:15:33.234Z,32.49
2019-04-07T16:18:05.460Z,32.54
2019-04-07T16:20:37.176Z,32.65
2019-04-07T16:23:02.033Z,32.71
2019-04-07T16:25:30.497Z,32.79
2019-04-07T16:27:59.064Z,32.84
2019-04-07T16:30:27.504Z,32.90
2019-04-07T16:32:59.698Z,32.98
2019-04-07T16:35:26.353Z,33.05
2019-04-07T16:37:55.398Z,33.19
2019-04-07T16:40:23.935Z,33.16
2019-04-07T16:43:04.785Z,33.23
2019-04-07T16:45:23.285Z,33.30
2019-04-07T16:47:51.715Z,33.34
2019-04-07T16:50:20.679Z,33.48
2019-04-07T16:52:49.825Z,33.55
2019-04-07T16:55:37.222Z,33.65
2019-04-07T16:58:06.319Z,33.74
2019-04-07T17:00:35.583Z,33.82
2019-04-07T17:03:04.444Z,33.91
2019-04-07T17:05:33.374Z,33.95
2019-04-07T17:08:01.814Z,34.02
2019-04-07T17:10:33.872Z,34.06
2019-04-07T17:13:01.737Z,34.15
2019-04-07T17:15:31.641Z,34.20
2019-04-07T17:18:00.299Z,34.30
2019-04-07T17:20:33.328Z,34.36
2019-04-07T17:22:58.889Z,34.41
2019-04-07T17:25:27.286Z,34.44
2019-04-07T17:27:58.726Z,34.49
2019-04-07T17:30:28.098Z,34.56
2019-04-07T17:32:56.648Z,34.60
2019-04-07T17:35:25.017Z,34.66
2019-04-07T17:37:56.574Z,34.72
2019-04-07T17:40:28.867Z,34.75
2019-04-07T17:42:59.690Z,34.83
2019-04-07T17:45:38.820Z,34.84
2019-04-07T17:48:14.538Z,34.91
2019-04-07T17:50:44.584Z,34.95
2019-04-07T17:53:32.870Z,35.01
2019-04-07T17:56:05.601Z,35.10
2019-04-07T17:58:47.934Z,35.14
2019-04-07T18:01:23.528Z,35.12
2019-04-07T18:04:09.325Z,35.20
2019-04-07T18:06:43.966Z,35.22
2019-04-07T18:09:18.025Z,35.24
2019-04-07T18:12:03.054Z,35.30
2019-04-07T18:14:36.324Z,35.36
2019-04-07T18:17:06.614Z,35.40
2019-04-07T18:19:37.542Z,35.47
2019-04-07T18:22:18.236Z,35.74
2019-04-07T18:24:48.724Z,36.15
2019-04-07T18:27:25.337Z,36.17
2019-04-07T18:29:59.623Z,36.16
2019-04-07T18:32:30.717Z,36.21
2019-04-07T18:35:16.871Z,36.26
2019-04-07T18:38:08.834Z,36.58
2019-04-07T18:40:43.997Z,36.63
2019-04-07T18:43:19.025Z,36.91
2019-04-07T18:45:57.828Z,36.89
2019-04-07T18:48:43.892Z,36.98
2019-04-07T18:51:17.769Z,37.08
2019-04-07T18:53:50.675Z,37.09
2019-04-07T18:56:23.837Z,37.00
2019-04-07T18:59:00.185Z,37.20
2019-04-07T19:01:38.897Z,37.22
2019-04-07T19:04:16.956Z,37.25
2019-04-07T19:06:48.416Z,37.30
2019-04-07T19:09:35.964Z,37.67
2019-04-07T19:12:23.488Z,37.52
2019-04-07T19:15:12.049Z,37.39
2019-04-07T19:17:59.578Z,37.27
2019-04-07T19:20:38.384Z,37.28
2019-04-07T19:23:11.115Z,37.31
2019-04-07T19:25:47.795Z,37.32
2019-04-07T19:28:18.860Z,37.44
2019-04-07T19:30:55.080Z,37.67
2019-04-07T19:33:31.084Z,37.56
2019-04-07T19:36:04.811Z,37.64
2019-04-07T19:38:37.546Z,37.66
2019-04-07T19:41:06.897Z,37.75
2019-04-07T19:43:44.672Z,37.79
2019-04-07T19:46:31.558Z,37.81
2019-04-07T19:49:02.317Z,37.85
2019-04-07T19:51:33.948Z,37.90
2019-04-07T19:54:20.394Z,37.98
2019-04-07T19:56:51.087Z,37.99
2019-04-07T19:59:30.184Z,38.09
2019-04-07T20:02:01.027Z,38.13
2019-04-07T20:04:44.244Z,38.19
2019-04-07T20:07:15.976Z,38.29
2019-04-07T20:09:52.544Z,38.45
2019-04-07T20:12:36.305Z,38.62
2019-04-07T20:15:10.946Z,38.68
2019-04-07T20:17:38.840Z,38.78
2019-04-07T20:20:10.997Z,38.86
2019-04-07T20:22:41.496Z,39.02
2019-04-07T20:25:28.019Z,39.07
2019-04-07T20:27:59.359Z,39.20
2019-04-07T20:30:35.636Z,39.30
2019-04-07T20:33:14.830Z,39.40
2019-04-07T20:35:44.951Z,39.48
2019-04-07T20:38:17.979Z,39.56
2019-04-07T20:40:50.798Z,39.64
2019-04-07T20:43:35.909Z,39.81
2019-04-07T20:46:24.061Z,39.87
2019-04-07T20:49:05.623Z,39.98
2019-04-07T20:51:37.873Z,40.10
2019-04-07T20:54:14.055Z,40.11
2019-04-07T20:56:45.886Z,40.19
2019-04-07T20:59:31.440Z,40.26
2019-04-07T21:02:17.110Z,40.26
2019-04-07T21:04:50.085Z,40.32
2019-04-07T21:07:23.352Z,40.46
2019-04-07T21:09:59.958Z,40.50
2019-04-07T21:12:33.562Z,40.58
2019-04-07T21:15:27.464Z,40.81
2019-04-07T21:17:54.415Z,40.77
2019-04-07T21:20:27.770Z,40.84
2019-04-07T21:22:57.896Z,40.91
2019-04-07T21:25:28.068Z,41.08
2019-04-07T21:28:06.071Z,41.02
2019-04-07T21:30:44.661Z,41.13
2019-04-07T21:33:17.483Z,41.20
2019-04-07T21:36:00.025Z,41.29
2019-04-07T21:38:45.414Z,41.25
2019-04-07T21:41:22.150Z,41.38
2019-04-07T21:43:58.257Z,41.40
2019-04-07T21:46:44.788Z,41.46
2019-04-07T21:49:14.872Z,41.49
2019-04-07T21:51:55.333Z,41.58
2019-04-07T21:54:34.739Z,41.62
2019-04-07T21:57:05.903Z,41.62
2019-04-07T21:59:39.626Z,41.74
2019-04-07T22:02:13.579Z,41.68
2019-04-07T22:04:53.044Z,41.71
2019-04-07T22:07:25.047Z,42.01
2019-04-07T22:09:55.211Z,42.03
2019-04-07T22:12:29.524Z,42.03
2019-04-07T22:14:54.817Z,42.07
2019-04-07T22:17:23.466Z,42.09
2019-04-07T22:19:51.910Z,42.10
2019-04-07T22:22:20.319Z,42.18
2019-04-07T22:24:48.736Z,42.22
2019-04-07T22:27:21.202Z,42.20
2019-04-07T22:29:47.312Z,42.17
2019-04-07T22:32:19.276Z,42.22
2019-04-07T22:34:46.182Z,42.28
2019-04-07T22:37:17.212Z,42.29
2019-04-07T22:39:45.642Z,42.32
2019-04-07T22:42:15.882Z,42.36
2019-04-07T22:44:45.249Z,42.38
2019-04-07T22:47:15.449Z,42.40
2019-04-07T22:49:44.002Z,42.62
2019-04-07T22:52:16.006Z,42.60
2019-04-07T22:54:42.575Z,42.59
2019-04-07T22:57:13.859Z,42.68
2019-04-07T22:59:41.826Z,42.68
2019-04-07T23:02:10.401Z,42.69
2019-04-07T23:04:38.894Z,42.79
2019-04-07T23:07:08.209Z,42.79
2019-04-07T23:09:37.029Z,42.80
2019-04-07T23:12:05.617Z,42.80
2019-04-07T23:14:34.030Z,42.80
2019-04-07T23:17:02.504Z,42.86
2019-04-07T23:19:31.011Z,42.83
2019-04-07T23:21:59.601Z,42.93
2019-04-07T23:24:28.850Z,43.11
2019-04-07T23:26:57.464Z,43.01
2019-04-07T23:29:26.209Z,43.16
2019-04-07T23:31:55.576Z,43.12
2019-04-07T23:34:24.136Z,43.14
2019-04-07T23:36:52.596Z,43.25
2019-04-07T23:39:21.522Z,43.15
2019-04-07T23:41:50.044Z,43.20
2019-04-07T23:44:18.456Z,43.32
2019-04-07T23:46:47.705Z,43.54
2019-04-07T23:49:16.229Z,43.31
2019-04-07T23:51:45.524Z,43.23
2019-04-07T23:54:14.384Z,43.33
2019-04-07T23:56:43.649Z,43.32
2019-04-07T23:59:12.140Z,43.32
